sensor_id;sensor_type;location;lat;lon;timestamp;temperature;humidity
4530;DHT22;2277;51.626;7.516;2023-11-19T00:02:08;11.30;99.90
4530;DHT22;2277;51.626;7.516;2023-11-19T00:04:37;11.40;99.90
4530;DHT22;2277;51.626;7.516;2023-11-19T00:07:05;11.40;99.90
4530;DHT22;2277;51.626;7.516;2023-11-19T00:09:32;11.40;99.90
4530;DHT22;2277;51.626;7.516;2023-11-19T00:11:58;11.50;99.90
4530;DHT22;2277;51.626;7.516;2023-11-19T00:14:26;11.50;99.90
4530;DHT22;2277;51.626;7.516;2023-11-19T00:16:52;11.50;99.90
4530;DHT22;2277;51.626;7.516;2023-11-19T00:19:19;11.50;99.90
4530;DHT22;2277;51.626;7.516;2023-11-19T00:21:44;11.50;99.90
4530;DHT22;2277;51.626;7.516;2023-11-19T00:24:11;11.50;99.90
4530;DHT22;2277;51.626;7.516;2023-11-19T00:26:38;11.50;99.90
4530;DHT22;2277;51.626;7.516;2023-11-19T00:29:04;11.50;99.90
4530;DHT22;2277;51.626;7.516;2023-11-19T00:31:29;11.50;99.90
4530;DHT22;2277;51.626;7.516;2023-11-19T00:33:55;11.40;99.90
4530;DHT22;2277;51.626;7.516;2023-11-19T00:36:21;11.50;99.90
4530;DHT22;2277;51.626;7.516;2023-11-19T00:38:46;11.50;99.90
4530;DHT22;2277;51.626;7.516;2023-11-19T00:41:12;11.60;99.90
4530;DHT22;2277;51.626;7.516;2023-11-19T00:43:37;11.60;99.90
4530;DHT22;2277;51.626;7.516;2023-11-19T00:46:05;11.60;99.90
4530;DHT22;2277;51.626;7.516;2023-11-19T00:48:32;11.70;99.90
4530;DHT22;2277;51.626;7.516;2023-11-19T00:50:57;11.70;99.90
4530;DHT22;2277;51.626;7.516;2023-11-19T00:53:23;11.70;99.90
4530;DHT22;2277;51.626;7.516;2023-11-19T00:55:48;11.80;99.90
4530;DHT22;2277;51.626;7.516;2023-11-19T00:58:14;11.80;99.90
4530;DHT22;2277;51.626;7.516;2023-11-19T01:00:39;11.80;99.90
4530;DHT22;2277;51.626;7.516;2023-11-19T01:03:05;11.80;99.90
4530;DHT22;2277;51.626;7.516;2023-11-19T01:05:32;11.90;99.90
4530;DHT22;2277;51.626;7.516;2023-11-19T01:07:58;11.90;99.90
4530;DHT22;2277;51.626;7.516;2023-11-19T01:10:24;11.90;99.90
4530;DHT22;2277;51.626;7.516;2023-11-19T01:12:51;12.10;99.90
4530;DHT22;2277;51.626;7.516;2023-11-19T01:15:17;12.10;99.90
4530;DHT22;2277;51.626;7.516;2023-11-19T01:17:44;12.10;99.90
4530;DHT22;2277;51.626;7.516;2023-11-19T01:20:10;12.20;99.90
4530;DHT22;2277;51.626;7.516;2023-11-19T01:22:38;12.30;99.90
4530;DHT22;2277;51.626;7.516;2023-11-19T01:25:04;12.40;99.90
4530;DHT22;2277;51.626;7.516;2023-11-19T01:27:30;12.50;99.90
4530;DHT22;2277;51.626;7.516;2023-11-19T01:29:56;12.50;99.90
4530;DHT22;2277;51.626;7.516;2023-11-19T01:32:22;12.60;99.90
4530;DHT22;2277;51.626;7.516;2023-11-19T01:34:49;12.50;99.90
4530;DHT22;2277;51.626;7.516;2023-11-19T01:37:15;12.60;99.90
4530;DHT22;2277;51.626;7.516;2023-11-19T01:39:44;12.60;99.90
4530;DHT22;2277;51.626;7.516;2023-11-19T01:42:10;12.60;99.90
4530;DHT22;2277;51.626;7.516;2023-11-19T01:44:37;12.70;99.90
4530;DHT22;2277;51.626;7.516;2023-11-19T01:47:03;12.70;99.90
4530;DHT22;2277;51.626;7.516;2023-11-19T01:49:30;12.70;99.90
4530;DHT22;2277;51.626;7.516;2023-11-19T01:51:57;12.80;99.90
4530;DHT22;2277;51.626;7.516;2023-11-19T01:54:24;12.90;99.90
4530;DHT22;2277;51.626;7.516;2023-11-19T01:56:49;12.80;99.90
4530;DHT22;2277;51.626;7.516;2023-11-19T01:59:15;12.90;99.90
4530;DHT22;2277;51.626;7.516;2023-11-19T02:01:42;12.90;99.90
4530;DHT22;2277;51.626;7.516;2023-11-19T02:04:08;12.90;99.90
4530;DHT22;2277;51.626;7.516;2023-11-19T02:06:40;13.00;99.90
4530;DHT22;2277;51.626;7.516;2023-11-19T02:09:07;13.00;99.90
4530;DHT22;2277;51.626;7.516;2023-11-19T02:11:34;13.00;99.90
4530;DHT22;2277;51.626;7.516;2023-11-19T02:14:00;12.90;99.90
4530;DHT22;2277;51.626;7.516;2023-11-19T02:16:26;13.00;99.90
4530;DHT22;2277;51.626;7.516;2023-11-19T02:18:52;13.00;99.90
4530;DHT22;2277;51.626;7.516;2023-11-19T02:21:17;13.10;99.90
4530;DHT22;2277;51.626;7.516;2023-11-19T02:23:43;13.10;99.90
4530;DHT22;2277;51.626;7.516;2023-11-19T02:28:48;13.20;99.90
4530;DHT22;2277;51.626;7.516;2023-11-19T02:31:14;13.30;99.90
4530;DHT22;2277;51.626;7.516;2023-11-19T02:33:40;13.20;99.90
4530;DHT22;2277;51.626;7.516;2023-11-19T02:36:07;13.20;99.90
4530;DHT22;2277;51.626;7.516;2023-11-19T02:38:36;13.30;99.90
4530;DHT22;2277;51.626;7.516;2023-11-19T02:41:03;13.20;99.90
4530;DHT22;2277;51.626;7.516;2023-11-19T02:43:34;13.20;99.90
4530;DHT22;2277;51.626;7.516;2023-11-19T02:46:03;13.30;99.90
4530;DHT22;2277;51.626;7.516;2023-11-19T02:48:33;13.30;99.90
4530;DHT22;2277;51.626;7.516;2023-11-19T02:51:01;13.30;99.90
4530;DHT22;2277;51.626;7.516;2023-11-19T02:53:29;13.40;99.90
4530;DHT22;2277;51.626;7.516;2023-11-19T02:55:54;13.40;99.90
4530;DHT22;2277;51.626;7.516;2023-11-19T02:58:31;13.40;99.90
4530;DHT22;2277;51.626;7.516;2023-11-19T03:00:57;13.40;99.90
4530;DHT22;2277;51.626;7.516;2023-11-19T03:03:26;13.40;99.90
4530;DHT22;2277;51.626;7.516;2023-11-19T03:05:56;13.40;99.90
4530;DHT22;2277;51.626;7.516;2023-11-19T03:08:22;13.40;99.90
4530;DHT22;2277;51.626;7.516;2023-11-19T03:10:48;13.50;99.90
4530;DHT22;2277;51.626;7.516;2023-11-19T03:13:14;13.50;99.90
4530;DHT22;2277;51.626;7.516;2023-11-19T03:15:40;13.50;99.90
4530;DHT22;2277;51.626;7.516;2023-11-19T03:18:06;13.50;99.90
4530;DHT22;2277;51.626;7.516;2023-11-19T03:20:32;13.50;99.90
4530;DHT22;2277;51.626;7.516;2023-11-19T03:22:59;13.60;99.90
4530;DHT22;2277;51.626;7.516;2023-11-19T03:25:26;13.60;99.90
4530;DHT22;2277;51.626;7.516;2023-11-19T03:27:59;13.60;99.90
4530;DHT22;2277;51.626;7.516;2023-11-19T03:30:26;13.50;99.90
4530;DHT22;2277;51.626;7.516;2023-11-19T03:32:51;13.50;99.90
4530;DHT22;2277;51.626;7.516;2023-11-19T03:35:17;13.50;99.90
4530;DHT22;2277;51.626;7.516;2023-11-19T03:37:42;13.50;99.90
4530;DHT22;2277;51.626;7.516;2023-11-19T03:40:09;13.60;99.90
4530;DHT22;2277;51.626;7.516;2023-11-19T03:42:35;13.60;99.90
4530;DHT22;2277;51.626;7.516;2023-11-19T03:45:01;13.60;99.90
4530;DHT22;2277;51.626;7.516;2023-11-19T03:47:26;13.70;99.90
4530;DHT22;2277;51.626;7.516;2023-11-19T03:49:52;13.70;99.90
4530;DHT22;2277;51.626;7.516;2023-11-19T03:52:18;13.70;99.90
4530;DHT22;2277;51.626;7.516;2023-11-19T03:54:44;13.70;99.90
4530;DHT22;2277;51.626;7.516;2023-11-19T03:57:11;13.70;99.90
4530;DHT22;2277;51.626;7.516;2023-11-19T03:59:37;13.80;99.90
4530;DHT22;2277;51.626;7.516;2023-11-19T04:02:03;13.70;99.90
4530;DHT22;2277;51.626;7.516;2023-11-19T04:04:29;13.70;99.90
4530;DHT22;2277;51.626;7.516;2023-11-19T04:06:55;13.70;99.90
4530;DHT22;2277;51.626;7.516;2023-11-19T04:09:21;13.80;99.90
4530;DHT22;2277;51.626;7.516;2023-11-19T04:11:46;13.70;99.90
4530;DHT22;2277;51.626;7.516;2023-11-19T04:14:13;13.70;99.90
4530;DHT22;2277;51.626;7.516;2023-11-19T04:16:39;13.80;99.90
4530;DHT22;2277;51.626;7.516;2023-11-19T04:19:05;13.80;99.90
4530;DHT22;2277;51.626;7.516;2023-11-19T04:21:30;13.70;99.90
4530;DHT22;2277;51.626;7.516;2023-11-19T04:23:56;13.70;99.90
4530;DHT22;2277;51.626;7.516;2023-11-19T04:26:22;13.60;99.90
4530;DHT22;2277;51.626;7.516;2023-11-19T04:28:47;13.60;99.90
4530;DHT22;2277;51.626;7.516;2023-11-19T04:31:17;13.70;99.90
4530;DHT22;2277;51.626;7.516;2023-11-19T04:33:43;13.60;99.90
4530;DHT22;2277;51.626;7.516;2023-11-19T04:36:09;13.70;99.90
4530;DHT22;2277;51.626;7.516;2023-11-19T04:38:35;13.70;99.90
4530;DHT22;2277;51.626;7.516;2023-11-19T04:41:01;13.70;99.90
4530;DHT22;2277;51.626;7.516;2023-11-19T04:43:26;13.60;99.90
4530;DHT22;2277;51.626;7.516;2023-11-19T04:45:52;13.60;99.90
4530;DHT22;2277;51.626;7.516;2023-11-19T04:48:18;13.60;99.90
4530;DHT22;2277;51.626;7.516;2023-11-19T04:50:43;13.50;99.90
4530;DHT22;2277;51.626;7.516;2023-11-19T04:53:09;13.60;99.90
4530;DHT22;2277;51.626;7.516;2023-11-19T04:55:35;13.60;99.90
4530;DHT22;2277;51.626;7.516;2023-11-19T04:58:01;13.50;99.90
4530;DHT22;2277;51.626;7.516;2023-11-19T05:00:26;13.60;99.90
4530;DHT22;2277;51.626;7.516;2023-11-19T05:02:52;13.60;99.90
4530;DHT22;2277;51.626;7.516;2023-11-19T05:05:17;13.50;99.90
4530;DHT22;2277;51.626;7.516;2023-11-19T05:07:43;13.50;99.90
4530;DHT22;2277;51.626;7.516;2023-11-19T05:10:09;13.50;99.90
4530;DHT22;2277;51.626;7.516;2023-11-19T05:12:35;13.50;99.90
4530;DHT22;2277;51.626;7.516;2023-11-19T05:15:01;13.50;99.90
4530;DHT22;2277;51.626;7.516;2023-11-19T05:17:26;13.40;99.90
4530;DHT22;2277;51.626;7.516;2023-11-19T05:19:52;13.40;99.90
4530;DHT22;2277;51.626;7.516;2023-11-19T05:22:19;13.40;99.90
4530;DHT22;2277;51.626;7.516;2023-11-19T05:24:45;13.40;99.90
4530;DHT22;2277;51.626;7.516;2023-11-19T05:27:13;13.40;99.90
4530;DHT22;2277;51.626;7.516;2023-11-19T05:29:39;13.40;99.90
4530;DHT22;2277;51.626;7.516;2023-11-19T05:32:06;13.30;99.90
4530;DHT22;2277;51.626;7.516;2023-11-19T05:34:32;13.30;99.90
4530;DHT22;2277;51.626;7.516;2023-11-19T05:36:58;13.30;99.90
4530;DHT22;2277;51.626;7.516;2023-11-19T05:39:23;13.30;99.90
4530;DHT22;2277;51.626;7.516;2023-11-19T05:41:52;13.20;99.90
4530;DHT22;2277;51.626;7.516;2023-11-19T05:44:17;13.20;99.90
4530;DHT22;2277;51.626;7.516;2023-11-19T05:46:44;13.20;99.90
4530;DHT22;2277;51.626;7.516;2023-11-19T05:49:10;13.20;99.90
4530;DHT22;2277;51.626;7.516;2023-11-19T05:51:37;13.10;99.90
4530;DHT22;2277;51.626;7.516;2023-11-19T05:54:05;13.00;99.90
4530;DHT22;2277;51.626;7.516;2023-11-19T05:56:32;13.00;99.90
4530;DHT22;2277;51.626;7.516;2023-11-19T05:58:59;13.10;99.90
4530;DHT22;2277;51.626;7.516;2023-11-19T06:01:33;13.10;99.90
4530;DHT22;2277;51.626;7.516;2023-11-19T06:03:59;13.10;99.90
4530;DHT22;2277;51.626;7.516;2023-11-19T06:06:26;13.10;99.90
4530;DHT22;2277;51.626;7.516;2023-11-19T06:08:52;13.10;99.90
4530;DHT22;2277;51.626;7.516;2023-11-19T06:11:18;13.10;99.90
4530;DHT22;2277;51.626;7.516;2023-11-19T06:13:45;13.00;99.90
4530;DHT22;2277;51.626;7.516;2023-11-19T06:16:11;13.10;99.90
4530;DHT22;2277;51.626;7.516;2023-11-19T06:18:37;13.10;99.90
4530;DHT22;2277;51.626;7.516;2023-11-19T06:21:03;13.00;99.90
4530;DHT22;2277;51.626;7.516;2023-11-19T06:23:29;13.00;99.90
4530;DHT22;2277;51.626;7.516;2023-11-19T06:25:54;13.00;99.90
4530;DHT22;2277;51.626;7.516;2023-11-19T06:28:20;12.90;99.90
4530;DHT22;2277;51.626;7.516;2023-11-19T06:30:45;12.90;99.90
4530;DHT22;2277;51.626;7.516;2023-11-19T06:33:14;12.90;99.90
4530;DHT22;2277;51.626;7.516;2023-11-19T06:35:40;12.90;99.90
4530;DHT22;2277;51.626;7.516;2023-11-19T06:38:05;12.80;99.90
4530;DHT22;2277;51.626;7.516;2023-11-19T06:40:32;12.90;99.90
4530;DHT22;2277;51.626;7.516;2023-11-19T06:42:58;12.90;99.90
4530;DHT22;2277;51.626;7.516;2023-11-19T06:45:24;12.90;99.90
4530;DHT22;2277;51.626;7.516;2023-11-19T06:47:49;13.00;99.90
4530;DHT22;2277;51.626;7.516;2023-11-19T06:50:15;12.90;99.90
4530;DHT22;2277;51.626;7.516;2023-11-19T06:52:41;12.90;99.90
4530;DHT22;2277;51.626;7.516;2023-11-19T06:55:07;12.90;99.90
4530;DHT22;2277;51.626;7.516;2023-11-19T06:57:33;12.90;99.90
4530;DHT22;2277;51.626;7.516;2023-11-19T06:59:58;12.90;99.90
4530;DHT22;2277;51.626;7.516;2023-11-19T07:02:24;12.80;99.90
4530;DHT22;2277;51.626;7.516;2023-11-19T07:04:51;12.80;99.90
4530;DHT22;2277;51.626;7.516;2023-11-19T07:07:16;12.80;99.90
4530;DHT22;2277;51.626;7.516;2023-11-19T07:09:42;12.80;99.90
4530;DHT22;2277;51.626;7.516;2023-11-19T07:12:08;12.80;99.90
4530;DHT22;2277;51.626;7.516;2023-11-19T07:14:34;12.80;99.90
4530;DHT22;2277;51.626;7.516;2023-11-19T07:16:59;12.90;99.90
4530;DHT22;2277;51.626;7.516;2023-11-19T07:19:25;12.80;99.90
4530;DHT22;2277;51.626;7.516;2023-11-19T07:21:51;12.90;99.90
4530;DHT22;2277;51.626;7.516;2023-11-19T07:24:20;13.00;99.90
4530;DHT22;2277;51.626;7.516;2023-11-19T07:26:47;12.90;99.90
4530;DHT22;2277;51.626;7.516;2023-11-19T07:29:13;12.90;99.90
4530;DHT22;2277;51.626;7.516;2023-11-19T07:31:40;12.90;99.90
4530;DHT22;2277;51.626;7.516;2023-11-19T07:34:06;12.90;99.90
4530;DHT22;2277;51.626;7.516;2023-11-19T07:36:32;12.90;99.90
4530;DHT22;2277;51.626;7.516;2023-11-19T07:38:58;13.10;99.90
4530;DHT22;2277;51.626;7.516;2023-11-19T07:41:24;13.00;99.90
4530;DHT22;2277;51.626;7.516;2023-11-19T07:43:50;13.00;99.90
4530;DHT22;2277;51.626;7.516;2023-11-19T07:46:17;13.00;99.90
4530;DHT22;2277;51.626;7.516;2023-11-19T07:48:45;13.10;99.90
4530;DHT22;2277;51.626;7.516;2023-11-19T07:51:12;13.20;99.90
4530;DHT22;2277;51.626;7.516;2023-11-19T07:53:38;13.10;99.90
4530;DHT22;2277;51.626;7.516;2023-11-19T07:56:05;13.10;99.90
4530;DHT22;2277;51.626;7.516;2023-11-19T07:58:31;13.00;99.90
4530;DHT22;2277;51.626;7.516;2023-11-19T08:00:56;13.00;99.90
4530;DHT22;2277;51.626;7.516;2023-11-19T08:03:22;13.10;99.90
4530;DHT22;2277;51.626;7.516;2023-11-19T08:05:48;13.10;99.90
4530;DHT22;2277;51.626;7.516;2023-11-19T08:08:14;13.20;99.90
4530;DHT22;2277;51.626;7.516;2023-11-19T08:10:40;13.20;99.90
4530;DHT22;2277;51.626;7.516;2023-11-19T08:13:06;13.30;99.90
4530;DHT22;2277;51.626;7.516;2023-11-19T08:15:32;13.30;99.90
4530;DHT22;2277;51.626;7.516;2023-11-19T08:17:58;13.40;99.90
4530;DHT22;2277;51.626;7.516;2023-11-19T08:20:24;13.50;99.90
4530;DHT22;2277;51.626;7.516;2023-11-19T08:22:49;13.50;99.90
4530;DHT22;2277;51.626;7.516;2023-11-19T08:25:15;13.60;99.90
4530;DHT22;2277;51.626;7.516;2023-11-19T08:27:41;13.50;99.90
4530;DHT22;2277;51.626;7.516;2023-11-19T08:30:06;13.60;99.90
4530;DHT22;2277;51.626;7.516;2023-11-19T08:32:32;13.60;99.90
4530;DHT22;2277;51.626;7.516;2023-11-19T08:34:58;13.60;99.90
4530;DHT22;2277;51.626;7.516;2023-11-19T08:37:24;13.70;99.90
4530;DHT22;2277;51.626;7.516;2023-11-19T08:39:50;13.70;99.90
4530;DHT22;2277;51.626;7.516;2023-11-19T08:42:16;13.60;99.90
4530;DHT22;2277;51.626;7.516;2023-11-19T08:44:43;13.60;99.90
4530;DHT22;2277;51.626;7.516;2023-11-19T08:47:10;13.60;99.90
4530;DHT22;2277;51.626;7.516;2023-11-19T08:49:36;13.60;99.90
4530;DHT22;2277;51.626;7.516;2023-11-19T08:52:02;13.60;99.90
4530;DHT22;2277;51.626;7.516;2023-11-19T08:54:27;13.60;99.90
4530;DHT22;2277;51.626;7.516;2023-11-19T08:56:53;13.60;99.90
4530;DHT22;2277;51.626;7.516;2023-11-19T08:59:18;13.70;99.90
4530;DHT22;2277;51.626;7.516;2023-11-19T09:01:44;13.70;99.90
4530;DHT22;2277;51.626;7.516;2023-11-19T09:04:11;13.60;99.90
4530;DHT22;2277;51.626;7.516;2023-11-19T09:06:36;13.70;99.90
4530;DHT22;2277;51.626;7.516;2023-11-19T09:09:02;13.70;99.90
4530;DHT22;2277;51.626;7.516;2023-11-19T09:11:31;13.70;99.90
4530;DHT22;2277;51.626;7.516;2023-11-19T09:13:57;13.80;99.90
4530;DHT22;2277;51.626;7.516;2023-11-19T09:16:23;13.90;99.90
4530;DHT22;2277;51.626;7.516;2023-11-19T09:18:49;14.10;99.90
4530;DHT22;2277;51.626;7.516;2023-11-19T09:21:15;14.20;99.90
4530;DHT22;2277;51.626;7.516;2023-11-19T09:23:41;14.40;99.90
4530;DHT22;2277;51.626;7.516;2023-11-19T09:26:08;14.50;99.90
4530;DHT22;2277;51.626;7.516;2023-11-19T09:28:35;14.50;99.90
4530;DHT22;2277;51.626;7.516;2023-11-19T09:31:01;14.50;99.90
4530;DHT22;2277;51.626;7.516;2023-11-19T09:33:30;14.40;99.90
4530;DHT22;2277;51.626;7.516;2023-11-19T09:35:55;14.50;99.90
4530;DHT22;2277;51.626;7.516;2023-11-19T09:38:21;14.50;99.90
4530;DHT22;2277;51.626;7.516;2023-11-19T09:40:46;14.60;99.90
4530;DHT22;2277;51.626;7.516;2023-11-19T09:43:14;14.70;99.90
4530;DHT22;2277;51.626;7.516;2023-11-19T09:45:50;14.70;99.90
4530;DHT22;2277;51.626;7.516;2023-11-19T09:48:19;14.70;99.90
4530;DHT22;2277;51.626;7.516;2023-11-19T09:50:48;14.60;99.90
4530;DHT22;2277;51.626;7.516;2023-11-19T09:53:15;14.70;99.90
4530;DHT22;2277;51.626;7.516;2023-11-19T09:55:41;14.70;99.90
4530;DHT22;2277;51.626;7.516;2023-11-19T09:58:07;14.70;99.90
4530;DHT22;2277;51.626;7.516;2023-11-19T10:00:34;14.60;99.90
4530;DHT22;2277;51.626;7.516;2023-11-19T10:03:00;14.60;99.90
4530;DHT22;2277;51.626;7.516;2023-11-19T10:05:26;14.50;99.90
4530;DHT22;2277;51.626;7.516;2023-11-19T10:07:52;14.50;99.90
4530;DHT22;2277;51.626;7.516;2023-11-19T10:10:18;14.60;99.90
4530;DHT22;2277;51.626;7.516;2023-11-19T10:12:47;14.60;99.90
4530;DHT22;2277;51.626;7.516;2023-11-19T10:15:23;14.60;99.90
4530;DHT22;2277;51.626;7.516;2023-11-19T10:17:51;14.50;99.90
4530;DHT22;2277;51.626;7.516;2023-11-19T10:20:17;14.50;99.90
4530;DHT22;2277;51.626;7.516;2023-11-19T10:22:42;14.50;99.90
4530;DHT22;2277;51.626;7.516;2023-11-19T10:25:25;14.40;99.90
4530;DHT22;2277;51.626;7.516;2023-11-19T10:27:52;14.40;99.90
4530;DHT22;2277;51.626;7.516;2023-11-19T10:30:22;14.30;99.90
4530;DHT22;2277;51.626;7.516;2023-11-19T10:33:06;14.30;99.90
4530;DHT22;2277;51.626;7.516;2023-11-19T10:35:33;14.40;99.90
4530;DHT22;2277;51.626;7.516;2023-11-19T10:38:15;14.30;99.90
4530;DHT22;2277;51.626;7.516;2023-11-19T10:40:41;14.30;99.90
4530;DHT22;2277;51.626;7.516;2023-11-19T10:43:07;14.30;99.90
4530;DHT22;2277;51.626;7.516;2023-11-19T10:45:33;14.30;99.90
4530;DHT22;2277;51.626;7.516;2023-11-19T10:47:59;14.20;99.90
4530;DHT22;2277;51.626;7.516;2023-11-19T10:50:26;14.20;99.90
4530;DHT22;2277;51.626;7.516;2023-11-19T10:52:56;14.20;99.90
4530;DHT22;2277;51.626;7.516;2023-11-19T10:55:30;14.20;99.90
4530;DHT22;2277;51.626;7.516;2023-11-19T10:58:04;14.10;99.90
4530;DHT22;2277;51.626;7.516;2023-11-19T11:00:37;14.00;99.90
4530;DHT22;2277;51.626;7.516;2023-11-19T11:05:43;14.00;99.90
4530;DHT22;2277;51.626;7.516;2023-11-19T11:08:10;14.10;99.90
4530;DHT22;2277;51.626;7.516;2023-11-19T11:10:40;14.10;99.90
4530;DHT22;2277;51.626;7.516;2023-11-19T11:13:07;14.20;99.90
4530;DHT22;2277;51.626;7.516;2023-11-19T11:15:34;14.10;99.90
4530;DHT22;2277;51.626;7.516;2023-11-19T11:18:01;14.20;99.90
4530;DHT22;2277;51.626;7.516;2023-11-19T11:20:29;14.20;99.90
4530;DHT22;2277;51.626;7.516;2023-11-19T11:23:23;14.10;99.90
4530;DHT22;2277;51.626;7.516;2023-11-19T11:29:05;13.90;99.90
4530;DHT22;2277;51.626;7.516;2023-11-19T11:37:25;13.90;99.90
4530;DHT22;2277;51.626;7.516;2023-11-19T11:39:53;13.90;99.90
4530;DHT22;2277;51.626;7.516;2023-11-19T11:45:07;13.80;99.90
4530;DHT22;2277;51.626;7.516;2023-11-19T11:50:18;13.80;99.90
4530;DHT22;2277;51.626;7.516;2023-11-19T11:55:25;13.90;99.90
4530;DHT22;2277;51.626;7.516;2023-11-19T11:57:51;13.90;99.90
4530;DHT22;2277;51.626;7.516;2023-11-19T12:00:33;13.90;99.90
4530;DHT22;2277;51.626;7.516;2023-11-19T12:03:04;13.90;99.90
4530;DHT22;2277;51.626;7.516;2023-11-19T12:05:30;13.90;99.90
4530;DHT22;2277;51.626;7.516;2023-11-19T12:08:02;14.00;99.90
4530;DHT22;2277;51.626;7.516;2023-11-19T12:10:30;14.00;99.90
4530;DHT22;2277;51.626;7.516;2023-11-19T12:13:00;14.00;99.90
4530;DHT22;2277;51.626;7.516;2023-11-19T12:15:27;14.10;99.90
4530;DHT22;2277;51.626;7.516;2023-11-19T12:17:54;14.10;99.90
4530;DHT22;2277;51.626;7.516;2023-11-19T12:20:24;14.20;99.90
4530;DHT22;2277;51.626;7.516;2023-11-19T12:22:50;14.20;99.90
4530;DHT22;2277;51.626;7.516;2023-11-19T12:25:17;14.20;99.90
4530;DHT22;2277;51.626;7.516;2023-11-19T12:27:49;14.30;99.90
4530;DHT22;2277;51.626;7.516;2023-11-19T12:30:33;14.50;99.90
4530;DHT22;2277;51.626;7.516;2023-11-19T12:32:59;14.60;99.90
4530;DHT22;2277;51.626;7.516;2023-11-19T12:35:24;14.70;99.90
4530;DHT22;2277;51.626;7.516;2023-11-19T12:37:51;14.70;99.90
4530;DHT22;2277;51.626;7.516;2023-11-19T12:40:24;14.70;99.90
4530;DHT22;2277;51.626;7.516;2023-11-19T12:42:51;14.70;99.90
4530;DHT22;2277;51.626;7.516;2023-11-19T12:45:18;14.70;99.90
4530;DHT22;2277;51.626;7.516;2023-11-19T12:47:45;14.70;99.90
4530;DHT22;2277;51.626;7.516;2023-11-19T12:50:17;14.70;99.90
4530;DHT22;2277;51.626;7.516;2023-11-19T12:52:55;14.70;99.90
4530;DHT22;2277;51.626;7.516;2023-11-19T12:55:28;14.70;99.90
4530;DHT22;2277;51.626;7.516;2023-11-19T12:57:54;14.70;99.90
4530;DHT22;2277;51.626;7.516;2023-11-19T13:00:25;14.70;99.90
4530;DHT22;2277;51.626;7.516;2023-11-19T13:02:53;14.70;99.90
4530;DHT22;2277;51.626;7.516;2023-11-19T13:05:34;14.70;99.90
4530;DHT22;2277;51.626;7.516;2023-11-19T13:08:02;14.70;99.90
4530;DHT22;2277;51.626;7.516;2023-11-19T13:10:29;14.80;99.90
4530;DHT22;2277;51.626;7.516;2023-11-19T13:13:04;14.70;99.90
4530;DHT22;2277;51.626;7.516;2023-11-19T13:15:31;14.70;99.90
4530;DHT22;2277;51.626;7.516;2023-11-19T13:17:56;14.80;99.90
4530;DHT22;2277;51.626;7.516;2023-11-19T13:20:22;14.70;99.90
4530;DHT22;2277;51.626;7.516;2023-11-19T13:23:14;14.50;99.90
4530;DHT22;2277;51.626;7.516;2023-11-19T13:25:40;14.30;99.90
4530;DHT22;2277;51.626;7.516;2023-11-19T13:28:06;14.30;99.90
4530;DHT22;2277;51.626;7.516;2023-11-19T13:30:31;14.20;99.90
4530;DHT22;2277;51.626;7.516;2023-11-19T13:32:57;14.20;99.90
4530;DHT22;2277;51.626;7.516;2023-11-19T13:35:22;14.10;99.90
4530;DHT22;2277;51.626;7.516;2023-11-19T13:37:48;14.10;99.90
4530;DHT22;2277;51.626;7.516;2023-11-19T13:40:14;14.10;99.90
4530;DHT22;2277;51.626;7.516;2023-11-19T13:42:41;14.20;99.90
4530;DHT22;2277;51.626;7.516;2023-11-19T13:45:10;14.20;99.90
4530;DHT22;2277;51.626;7.516;2023-11-19T13:47:40;14.20;99.90
4530;DHT22;2277;51.626;7.516;2023-11-19T13:50:12;14.20;99.90
4530;DHT22;2277;51.626;7.516;2023-11-19T13:52:39;14.30;99.90
4530;DHT22;2277;51.626;7.516;2023-11-19T13:55:06;14.20;99.90
4530;DHT22;2277;51.626;7.516;2023-11-19T13:57:33;14.20;99.90
4530;DHT22;2277;51.626;7.516;2023-11-19T14:00:00;14.20;99.90
4530;DHT22;2277;51.626;7.516;2023-11-19T14:02:25;14.20;99.90
4530;DHT22;2277;51.626;7.516;2023-11-19T14:04:51;14.10;99.90
4530;DHT22;2277;51.626;7.516;2023-11-19T14:07:16;14.10;99.90
4530;DHT22;2277;51.626;7.516;2023-11-19T14:09:42;14.10;99.90
4530;DHT22;2277;51.626;7.516;2023-11-19T14:12:08;14.10;99.90
4530;DHT22;2277;51.626;7.516;2023-11-19T14:14:35;14.00;99.90
4530;DHT22;2277;51.626;7.516;2023-11-19T14:17:02;14.00;99.90
4530;DHT22;2277;51.626;7.516;2023-11-19T14:19:28;14.00;99.90
4530;DHT22;2277;51.626;7.516;2023-11-19T14:21:54;13.90;99.90
4530;DHT22;2277;51.626;7.516;2023-11-19T14:24:19;14.00;99.90
4530;DHT22;2277;51.626;7.516;2023-11-19T14:26:48;13.90;99.90
4530;DHT22;2277;51.626;7.516;2023-11-19T14:29:15;13.90;99.90
4530;DHT22;2277;51.626;7.516;2023-11-19T14:31:41;13.90;99.90
4530;DHT22;2277;51.626;7.516;2023-11-19T14:34:06;13.90;99.90
4530;DHT22;2277;51.626;7.516;2023-11-19T14:36:32;13.90;99.90
4530;DHT22;2277;51.626;7.516;2023-11-19T14:38:58;13.90;99.90
4530;DHT22;2277;51.626;7.516;2023-11-19T14:41:24;13.80;99.90
4530;DHT22;2277;51.626;7.516;2023-11-19T14:43:50;13.90;99.90
4530;DHT22;2277;51.626;7.516;2023-11-19T14:46:15;13.90;99.90
4530;DHT22;2277;51.626;7.516;2023-11-19T14:48:41;13.90;99.90
4530;DHT22;2277;51.626;7.516;2023-11-19T14:51:07;13.90;99.90
4530;DHT22;2277;51.626;7.516;2023-11-19T14:53:33;13.90;99.90
4530;DHT22;2277;51.626;7.516;2023-11-19T14:56:00;13.80;99.90
4530;DHT22;2277;51.626;7.516;2023-11-19T14:58:25;13.70;99.90
4530;DHT22;2277;51.626;7.516;2023-11-19T15:00:52;13.90;99.90
4530;DHT22;2277;51.626;7.516;2023-11-19T15:03:17;13.80;99.90
4530;DHT22;2277;51.626;7.516;2023-11-19T15:05:47;13.60;99.90
4530;DHT22;2277;51.626;7.516;2023-11-19T15:08:13;13.60;99.90
4530;DHT22;2277;51.626;7.516;2023-11-19T15:10:44;13.50;99.90
4530;DHT22;2277;51.626;7.516;2023-11-19T15:13:10;13.50;99.90
4530;DHT22;2277;51.626;7.516;2023-11-19T15:15:36;13.50;99.90
4530;DHT22;2277;51.626;7.516;2023-11-19T15:18:04;13.50;99.90
4530;DHT22;2277;51.626;7.516;2023-11-19T15:20:29;13.40;99.90
4530;DHT22;2277;51.626;7.516;2023-11-19T15:22:59;13.40;99.90
4530;DHT22;2277;51.626;7.516;2023-11-19T15:25:25;13.20;99.90
4530;DHT22;2277;51.626;7.516;2023-11-19T15:27:50;13.20;99.90
4530;DHT22;2277;51.626;7.516;2023-11-19T15:30:16;13.30;99.90
4530;DHT22;2277;51.626;7.516;2023-11-19T15:32:42;13.20;99.90
4530;DHT22;2277;51.626;7.516;2023-11-19T15:35:10;13.30;99.90
4530;DHT22;2277;51.626;7.516;2023-11-19T15:37:36;13.30;99.90
4530;DHT22;2277;51.626;7.516;2023-11-19T15:40:06;13.20;99.90
4530;DHT22;2277;51.626;7.516;2023-11-19T15:42:33;13.20;99.90
4530;DHT22;2277;51.626;7.516;2023-11-19T15:44:59;13.20;99.90
4530;DHT22;2277;51.626;7.516;2023-11-19T15:47:25;13.20;99.90
4530;DHT22;2277;51.626;7.516;2023-11-19T15:49:50;13.20;99.90
4530;DHT22;2277;51.626;7.516;2023-11-19T15:52:16;13.20;99.90
4530;DHT22;2277;51.626;7.516;2023-11-19T15:54:42;13.30;99.90
4530;DHT22;2277;51.626;7.516;2023-11-19T15:57:07;13.20;99.90
4530;DHT22;2277;51.626;7.516;2023-11-19T15:59:33;13.20;99.90
4530;DHT22;2277;51.626;7.516;2023-11-19T16:01:59;13.10;99.90
4530;DHT22;2277;51.626;7.516;2023-11-19T16:04:25;13.20;99.90
4530;DHT22;2277;51.626;7.516;2023-11-19T16:06:50;13.20;99.90
4530;DHT22;2277;51.626;7.516;2023-11-19T16:09:16;13.10;99.90
4530;DHT22;2277;51.626;7.516;2023-11-19T16:11:45;13.20;99.90
4530;DHT22;2277;51.626;7.516;2023-11-19T16:14:11;13.20;99.90
4530;DHT22;2277;51.626;7.516;2023-11-19T16:16:38;13.20;99.90
4530;DHT22;2277;51.626;7.516;2023-11-19T16:19:03;13.20;99.90
4530;DHT22;2277;51.626;7.516;2023-11-19T16:21:32;13.10;99.90
4530;DHT22;2277;51.626;7.516;2023-11-19T16:23:58;13.10;99.90